createdAt,value
2023-05-01T00:01:32.793Z,1.18
2023-05-01T00:04:00.935Z,1.00
2023-05-01T00:06:29.301Z,0.86
2023-05-01T00:08:57.211Z,0.77
2023-05-01T00:11:25.287Z,0.72
2023-05-01T00:13:54.544Z,0.69
2023-05-01T00:16:22.454Z,0.68
2023-05-01T00:18:50.596Z,0.66
2023-05-01T00:21:18.594Z,0.61
2023-05-01T00:23:46.977Z,0.57
2023-05-01T00:26:14.946Z,0.52
2023-05-01T00:28:44.331Z,0.49
2023-05-01T00:31:12.475Z,0.49
2023-05-01T00:33:40.681Z,0.48
2023-05-01T00:36:09.306Z,0.45
2023-05-01T00:38:37.252Z,0.41
2023-05-01T00:41:05.233Z,0.37
2023-05-01T00:43:33.814Z,0.33
2023-05-01T00:46:01.894Z,0.30
2023-05-01T00:48:29.932Z,0.29
2023-05-01T00:50:57.885Z,0.27
2023-05-01T00:53:26.501Z,0.21
2023-05-01T00:55:56.510Z,0.15
2023-05-01T00:58:24.391Z,0.10
2023-05-01T01:00:53.208Z,0.08
2023-05-01T01:03:21.710Z,0.04
2023-05-01T01:06:24.569Z,-0.03
2023-05-01T01:09:11.564Z,-0.11
2023-05-01T01:11:54.598Z,-0.16
2023-05-01T01:14:28.446Z,-0.19
2023-05-01T01:17:05.026Z,-0.16
2023-05-01T01:20:07.205Z,-0.16
2023-05-01T01:22:35.532Z,-0.21
2023-05-01T01:25:26.056Z,-0.25
2023-05-01T01:28:15.817Z,-0.30
2023-05-01T01:31:18.736Z,-0.31
2023-05-01T01:33:52.765Z,-0.33
2023-05-01T01:36:47.914Z,-0.38
2023-05-01T01:40:05.342Z,-0.41
2023-05-01T01:42:41.998Z,-0.45
2023-05-01T01:45:13.596Z,-0.48
2023-05-01T01:47:41.860Z,-0.49
2023-05-01T01:50:10.420Z,-0.48
2023-05-01T01:52:39.087Z,-0.46
2023-05-01T01:55:12.594Z,-0.45
2023-05-01T01:57:43.242Z,-0.44
2023-05-01T02:00:12.098Z,-0.43
2023-05-01T02:02:45.123Z,-0.44
2023-05-01T02:05:15.036Z,-0.48
2023-05-01T02:07:43.614Z,-0.51
2023-05-01T02:10:12.857Z,-0.55
2023-05-01T02:12:42.156Z,-0.59
2023-05-01T02:15:10.098Z,-0.61
2023-05-01T02:17:38.654Z,-0.63
2023-05-01T02:20:07.782Z,-0.64
2023-05-01T02:22:35.763Z,-0.67
2023-05-01T02:25:04.162Z,-0.69
2023-05-01T02:27:35.036Z,-0.70
2023-05-01T02:30:03.454Z,-0.71
2023-05-01T02:32:31.991Z,-0.72
2023-05-01T02:35:00.496Z,-0.75
2023-05-01T02:37:30.775Z,-0.77
2023-05-01T02:40:00.713Z,-0.78
2023-05-01T02:42:28.687Z,-0.76
2023-05-01T02:45:05.172Z,-0.76
2023-05-01T02:47:35.683Z,-0.76
2023-05-01T02:50:03.942Z,-0.78
2023-05-01T02:52:32.111Z,-0.81
2023-05-01T02:55:12.027Z,-0.84
2023-05-01T02:57:39.964Z,-0.86
2023-05-01T03:00:11.656Z,-0.87
2023-05-01T03:02:40.715Z,-0.88
2023-05-01T03:05:09.176Z,-0.89
2023-05-01T03:07:37.210Z,-0.91
2023-05-01T03:10:06.067Z,-0.92
2023-05-01T03:12:34.186Z,-0.93
2023-05-01T03:15:02.323Z,-0.94
2023-05-01T03:17:31.501Z,-0.94
2023-05-01T03:19:59.420Z,-0.90
2023-05-01T03:22:29.705Z,-0.89
2023-05-01T03:24:57.819Z,-0.88
2023-05-01T03:27:25.753Z,-0.86
2023-05-01T03:29:55.568Z,-0.85
2023-05-01T03:32:24.153Z,-0.83
2023-05-01T03:34:52.409Z,-0.81
2023-05-01T03:37:21.330Z,-0.76
2023-05-01T03:39:49.511Z,-0.70
2023-05-01T03:42:35.926Z,-0.63
2023-05-01T03:45:09.826Z,-0.57
2023-05-01T03:47:37.880Z,-0.49
2023-05-01T03:50:07.055Z,-0.40
2023-05-01T03:52:35.400Z,-0.27
2023-05-01T03:55:04.542Z,-0.18
2023-05-01T03:57:42.727Z,-0.07
2023-05-01T04:00:12.027Z,0.04
2023-05-01T04:02:46.426Z,0.16
2023-05-01T04:05:18.701Z,0.28
2023-05-01T04:07:50.713Z,0.39
2023-05-01T04:10:18.731Z,0.52
2023-05-01T04:12:58.701Z,0.67
2023-05-01T04:15:27.102Z,0.82
2023-05-01T04:17:56.978Z,0.96
2023-05-01T04:20:25.112Z,1.09
2023-05-01T04:22:53.232Z,1.23
2023-05-01T04:25:21.234Z,1.51
2023-05-01T04:27:50.802Z,1.68
2023-05-01T04:30:18.780Z,1.78
2023-05-01T04:32:46.920Z,1.88
2023-05-01T04:35:15.083Z,1.99
2023-05-01T04:37:44.510Z,2.12
2023-05-01T04:40:12.924Z,2.27
2023-05-01T04:42:41.133Z,2.41
2023-05-01T04:45:11.375Z,2.55
2023-05-01T04:47:39.530Z,2.68
2023-05-01T04:50:08.375Z,2.81
2023-05-01T04:52:36.446Z,2.94
2023-05-01T04:55:05.185Z,3.08
2023-05-01T04:57:35.711Z,3.22
2023-05-01T05:00:08.041Z,3.36
2023-05-01T05:02:40.206Z,3.51
2023-05-01T05:05:09.310Z,3.68
2023-05-01T05:07:37.667Z,3.86
2023-05-01T05:10:26.031Z,4.05
2023-05-01T05:13:06.800Z,4.27
2023-05-01T05:15:34.910Z,4.53
2023-05-01T05:18:04.007Z,5.56
2023-05-01T05:20:32.501Z,7.28
2023-05-01T05:23:00.534Z,8.80
2023-05-01T05:25:28.647Z,9.90
2023-05-01T05:27:56.742Z,10.89
2023-05-01T05:30:24.727Z,11.91
2023-05-01T05:32:53.758Z,12.61
2023-05-01T05:35:22.240Z,13.34
2023-05-01T05:37:50.841Z,13.93
2023-05-01T05:40:19.484Z,14.49
2023-05-01T05:42:58.848Z,15.16
2023-05-01T05:45:27.537Z,15.66
2023-05-01T05:47:55.847Z,16.11
2023-05-01T05:50:24.275Z,16.53
2023-05-01T05:52:52.368Z,16.67
2023-05-01T05:55:20.941Z,16.53
2023-05-01T05:58:09.190Z,15.94
2023-05-01T06:00:39.632Z,15.30
2023-05-01T06:03:10.188Z,14.65
2023-05-01T06:05:38.497Z,14.66
2023-05-01T06:08:06.613Z,14.55
2023-05-01T06:10:34.627Z,14.49
2023-05-01T06:13:10.392Z,14.54
2023-05-01T06:15:45.048Z,14.58
2023-05-01T06:18:13.599Z,14.52
2023-05-01T06:20:42.798Z,14.53
2023-05-01T06:23:11.051Z,14.65
2023-05-01T06:25:48.878Z,14.33
2023-05-01T06:28:16.876Z,14.55
2023-05-01T06:30:45.270Z,14.43
2023-05-01T06:33:14.033Z,14.33
2023-05-01T06:35:42.808Z,14.77
2023-05-01T06:38:11.377Z,14.77
2023-05-01T06:40:42.228Z,14.45
2023-05-01T06:43:10.168Z,14.93
2023-05-01T06:45:40.088Z,14.96
2023-05-01T06:48:08.119Z,14.86
2023-05-01T06:50:37.397Z,14.74
2023-05-01T06:53:05.320Z,14.68
2023-05-01T06:55:35.174Z,14.74
2023-05-01T06:58:16.009Z,14.77
2023-05-01T07:00:51.388Z,14.90
2023-05-01T07:03:19.501Z,15.02
2023-05-01T07:05:47.540Z,15.38
2023-05-01T07:08:15.533Z,15.35
2023-05-01T07:10:43.704Z,15.27
2023-05-01T07:13:11.731Z,15.33
2023-05-01T07:15:39.684Z,15.13
2023-05-01T07:18:07.949Z,15.22
2023-05-01T07:20:35.975Z,15.63
2023-05-01T07:23:07.276Z,15.72
2023-05-01T07:25:41.477Z,15.60
2023-05-01T07:28:09.420Z,15.57
2023-05-01T07:30:37.688Z,15.56
2023-05-01T07:33:06.073Z,15.53
2023-05-01T07:35:34.056Z,15.73
2023-05-01T07:38:02.066Z,15.88
2023-05-01T07:40:30.108Z,15.70
2023-05-01T07:42:58.160Z,15.52
2023-05-01T07:45:26.080Z,15.60
2023-05-01T07:47:54.370Z,15.86
2023-05-01T07:50:22.850Z,15.93
2023-05-01T07:52:51.225Z,15.70
2023-05-01T07:55:19.437Z,15.93
2023-05-01T07:57:47.522Z,16.11
2023-05-01T08:00:16.201Z,15.84
2023-05-01T08:02:44.530Z,15.86
2023-05-01T08:05:12.493Z,16.03
2023-05-01T08:07:40.584Z,16.10
2023-05-01T08:10:09.200Z,16.58
2023-05-01T08:12:37.222Z,16.73
2023-05-01T08:15:05.875Z,16.65
2023-05-01T08:17:35.592Z,16.56
2023-05-01T08:20:04.349Z,16.58
2023-05-01T08:22:32.330Z,16.61
2023-05-01T08:25:00.352Z,16.75
2023-05-01T08:27:28.844Z,16.61
2023-05-01T08:29:56.943Z,16.66
2023-05-01T08:32:25.666Z,16.68
2023-05-01T08:34:54.047Z,17.00
2023-05-01T08:37:22.408Z,17.07
2023-05-01T08:39:50.561Z,16.94
2023-05-01T08:42:18.936Z,16.95
2023-05-01T08:44:46.958Z,17.02
2023-05-01T08:47:18.594Z,17.12
2023-05-01T08:49:47.396Z,17.21
2023-05-01T08:52:18.072Z,17.35
2023-05-01T08:54:47.311Z,17.23
2023-05-01T08:57:15.389Z,17.47
2023-05-01T08:59:43.366Z,17.64
2023-05-01T09:02:12.614Z,17.88
2023-05-01T09:04:41.362Z,17.95
2023-05-01T09:07:12.074Z,17.67
2023-05-01T09:09:40.154Z,17.65
2023-05-01T09:12:28.406Z,17.68
2023-05-01T09:14:56.927Z,17.84
2023-05-01T09:17:25.149Z,17.82
2023-05-01T09:19:53.331Z,17.40
2023-05-01T09:22:21.472Z,17.69
2023-05-01T09:24:49.535Z,17.93
2023-05-01T09:27:17.634Z,18.14
2023-05-01T09:29:47.485Z,18.09
2023-05-01T09:32:22.592Z,18.24
2023-05-01T09:34:54.967Z,18.36
2023-05-01T09:37:29.732Z,18.60
2023-05-01T09:40:07.235Z,18.86
2023-05-01T09:42:37.596Z,19.09
2023-05-01T09:45:14.128Z,18.96
2023-05-01T09:47:44.045Z,18.77
2023-05-01T09:50:33.176Z,18.59
2023-05-01T09:53:01.646Z,18.50
2023-05-01T09:55:29.676Z,18.96
2023-05-01T09:57:59.024Z,19.20
2023-05-01T10:00:27.092Z,19.34
2023-05-01T10:02:55.201Z,19.64
2023-05-01T10:05:23.592Z,19.76
2023-05-01T10:07:59.192Z,19.63
2023-05-01T10:10:27.464Z,19.56
2023-05-01T10:12:55.625Z,19.31
2023-05-01T10:15:26.928Z,19.13
2023-05-01T10:17:55.751Z,19.47
2023-05-01T10:20:24.078Z,19.51
2023-05-01T10:22:52.145Z,19.26
2023-05-01T10:25:20.094Z,19.34
2023-05-01T10:27:48.659Z,19.87
2023-05-01T10:30:16.785Z,19.94
2023-05-01T10:32:44.785Z,20.16
2023-05-01T10:35:15.357Z,20.24
2023-05-01T10:37:56.700Z,20.59
2023-05-01T10:40:39.950Z,20.72
2023-05-01T10:43:28.823Z,20.89
2023-05-01T10:46:12.308Z,21.12
2023-05-01T10:48:44.068Z,21.06
2023-05-01T10:51:15.872Z,20.61
2023-05-01T10:53:44.919Z,20.43
2023-05-01T10:56:23.920Z,20.77
2023-05-01T10:58:58.976Z,20.55
2023-05-01T11:01:31.571Z,20.35
2023-05-01T11:04:19.626Z,20.41
2023-05-01T11:07:05.973Z,20.55
2023-05-01T11:09:40.158Z,20.65
2023-05-01T11:12:11.816Z,20.76
2023-05-01T11:15:02.564Z,20.82
2023-05-01T11:17:39.827Z,21.22
2023-05-01T11:20:11.209Z,21.34
2023-05-01T11:22:48.633Z,21.36
2023-05-01T11:25:27.749Z,21.12
2023-05-01T11:28:03.478Z,20.90
2023-05-01T11:30:40.870Z,21.02
2023-05-01T11:33:10.471Z,21.08
2023-05-01T11:35:38.984Z,21.31
2023-05-01T11:38:06.982Z,21.38
2023-05-01T11:40:35.170Z,21.03
2023-05-01T11:43:07.359Z,20.93
2023-05-01T11:45:36.520Z,20.82
2023-05-01T11:48:05.233Z,20.89
2023-05-01T11:50:35.630Z,21.20
2023-05-01T11:53:04.691Z,21.11
2023-05-01T11:55:33.470Z,21.16
2023-05-01T11:58:02.129Z,21.05
2023-05-01T12:00:31.792Z,20.80
2023-05-01T12:03:02.206Z,20.78
2023-05-01T12:05:31.208Z,20.44
2023-05-01T12:08:14.277Z,20.60
2023-05-01T12:10:43.471Z,20.62
2023-05-01T12:13:13.079Z,20.80
2023-05-01T12:15:46.231Z,20.84
2023-05-01T12:18:15.410Z,20.66
2023-05-01T12:20:48.731Z,20.41
2023-05-01T12:23:16.952Z,20.30
2023-05-01T12:25:45.553Z,20.65
2023-05-01T12:28:15.206Z,20.82
2023-05-01T12:30:43.571Z,21.05
2023-05-01T12:33:16.624Z,20.97
2023-05-01T12:35:46.746Z,20.62
2023-05-01T12:38:15.312Z,20.57
2023-05-01T12:40:59.787Z,20.72
2023-05-01T12:43:32.144Z,20.18
2023-05-01T12:46:00.447Z,20.37
2023-05-01T12:48:28.493Z,20.24
2023-05-01T12:50:57.004Z,20.41
2023-05-01T12:53:26.301Z,20.51
2023-05-01T12:55:58.418Z,20.65
2023-05-01T12:58:37.059Z,20.51
2023-05-01T13:01:07.918Z,20.63
2023-05-01T13:03:38.525Z,20.74
2023-05-01T13:06:09.307Z,20.84
2023-05-01T13:08:39.799Z,20.79
2023-05-01T13:11:15.454Z,21.00
2023-05-01T13:13:44.379Z,21.40
2023-05-01T13:16:13.894Z,21.54
2023-05-01T13:18:51.603Z,21.61
2023-05-01T13:21:20.947Z,21.77
2023-05-01T13:23:55.311Z,21.77
2023-05-01T13:26:33.733Z,21.41
2023-05-01T13:29:03.231Z,21.18
2023-05-01T13:31:31.443Z,21.09
2023-05-01T13:33:59.658Z,21.03
2023-05-01T13:36:32.408Z,21.12
2023-05-01T13:39:00.357Z,21.16
2023-05-01T13:41:28.505Z,21.21
2023-05-01T13:43:57.144Z,21.38
2023-05-01T13:46:26.625Z,21.67
2023-05-01T13:48:54.810Z,21.75
2023-05-01T13:51:24.430Z,21.67
2023-05-01T13:53:53.743Z,21.57
2023-05-01T13:56:22.424Z,21.07
2023-05-01T13:58:50.971Z,21.08
2023-05-01T14:01:20.819Z,21.18
2023-05-01T14:03:49.426Z,21.17
2023-05-01T14:06:19.186Z,21.23
2023-05-01T14:08:48.416Z,21.32
2023-05-01T14:11:16.935Z,21.30
2023-05-01T14:13:45.959Z,21.17
2023-05-01T14:16:31.961Z,21.10
2023-05-01T14:18:59.991Z,20.93
2023-05-01T14:21:28.520Z,20.90
2023-05-01T14:23:59.605Z,20.99
2023-05-01T14:26:27.721Z,21.21
2023-05-01T14:28:55.768Z,21.34
2023-05-01T14:31:28.529Z,21.07
2023-05-01T14:33:58.155Z,21.03
2023-05-01T14:36:26.885Z,21.13
2023-05-01T14:39:01.156Z,20.91
2023-05-01T14:41:30.099Z,20.90
2023-05-01T14:43:58.098Z,20.88
2023-05-01T14:46:30.081Z,20.52
2023-05-01T14:48:58.760Z,20.30
2023-05-01T14:51:27.364Z,20.03
2023-05-01T14:53:55.507Z,20.17
2023-05-01T14:56:23.611Z,20.45
2023-05-01T14:58:51.626Z,20.70
2023-05-01T15:01:19.876Z,20.79
2023-05-01T15:03:48.162Z,20.92
2023-05-01T15:06:17.230Z,21.03
2023-05-01T15:08:45.866Z,21.12
2023-05-01T15:11:14.385Z,21.15
2023-05-01T15:13:46.053Z,21.07
2023-05-01T15:16:13.980Z,21.29
2023-05-01T15:18:42.195Z,21.30
2023-05-01T15:21:10.407Z,20.93
2023-05-01T15:23:39.793Z,20.63
2023-05-01T15:26:07.710Z,20.53
2023-05-01T15:28:35.602Z,20.44
2023-05-01T15:31:03.632Z,20.26
2023-05-01T15:33:35.277Z,20.25
2023-05-01T15:36:03.434Z,20.22
2023-05-01T15:38:31.502Z,20.07
2023-05-01T15:40:59.620Z,20.18
2023-05-01T15:43:27.804Z,20.10
2023-05-01T15:45:59.228Z,19.92
2023-05-01T15:48:27.278Z,19.82
2023-05-01T15:50:55.194Z,19.72
2023-05-01T15:53:23.262Z,19.71
2023-05-01T15:55:53.366Z,19.77
2023-05-01T15:58:21.839Z,19.71
2023-05-01T16:00:50.281Z,19.70
2023-05-01T16:03:18.434Z,19.61
2023-05-01T16:05:49.898Z,19.46
2023-05-01T16:08:18.199Z,19.19
2023-05-01T16:10:46.267Z,18.88
2023-05-01T16:13:14.296Z,18.67
2023-05-01T16:15:42.275Z,18.49
2023-05-01T16:18:10.342Z,18.39
2023-05-01T16:20:41.948Z,18.28
2023-05-01T16:23:11.372Z,18.17
2023-05-01T16:25:42.642Z,18.06
2023-05-01T16:28:12.603Z,17.89
2023-05-01T16:30:41.875Z,17.78
2023-05-01T16:33:18.875Z,17.67
2023-05-01T16:35:48.807Z,17.77
2023-05-01T16:38:17.400Z,17.92
2023-05-01T16:40:46.102Z,18.01
2023-05-01T16:43:14.136Z,18.01
2023-05-01T16:45:42.315Z,17.99
2023-05-01T16:48:10.447Z,17.97
2023-05-01T16:50:41.577Z,17.95
2023-05-01T16:53:09.540Z,17.87
2023-05-01T16:55:37.462Z,17.78
2023-05-01T16:58:06.988Z,17.71
2023-05-01T17:00:34.948Z,17.66
2023-05-01T17:03:03.087Z,17.62
2023-05-01T17:05:31.104Z,17.53
2023-05-01T17:07:59.810Z,17.42
2023-05-01T17:10:29.218Z,17.35
2023-05-01T17:12:57.274Z,17.26
2023-05-01T17:15:25.394Z,17.16
2023-05-01T17:17:53.646Z,17.07
2023-05-01T17:20:22.010Z,16.94
2023-05-01T17:22:49.991Z,16.84
2023-05-01T17:25:18.141Z,16.77
2023-05-01T17:27:46.211Z,16.70
2023-05-01T17:30:14.646Z,16.61
2023-05-01T17:32:43.175Z,16.53
2023-05-01T17:35:11.399Z,16.47
2023-05-01T17:37:42.124Z,16.41
2023-05-01T17:40:11.806Z,16.32
2023-05-01T17:42:40.539Z,16.22
2023-05-01T17:45:10.470Z,16.12
2023-05-01T17:47:42.859Z,16.02
2023-05-01T17:50:13.022Z,15.90
2023-05-01T17:52:42.247Z,15.79
2023-05-01T17:55:10.848Z,15.66
2023-05-01T17:57:42.043Z,15.54
2023-05-01T18:00:11.818Z,15.42
2023-05-01T18:02:45.212Z,15.28
2023-05-01T18:05:13.664Z,15.13
2023-05-01T18:07:42.569Z,14.98
2023-05-01T18:10:11.515Z,14.81
2023-05-01T18:12:40.214Z,14.64
2023-05-01T18:15:11.551Z,14.50
2023-05-01T18:17:42.997Z,14.35
2023-05-01T18:20:13.726Z,14.19
2023-05-01T18:22:42.128Z,14.07
2023-05-01T18:25:10.475Z,13.94
2023-05-01T18:27:39.044Z,13.78
2023-05-01T18:30:07.828Z,13.59
2023-05-01T18:32:46.993Z,13.43
2023-05-01T18:35:17.281Z,13.25
2023-05-01T18:37:45.405Z,13.05
2023-05-01T18:40:13.589Z,12.88
2023-05-01T18:42:42.056Z,12.70
2023-05-01T18:45:10.411Z,12.49
2023-05-01T18:47:38.545Z,12.29
2023-05-01T18:50:07.254Z,12.09
2023-05-01T18:52:37.248Z,11.91
2023-05-01T18:55:06.594Z,11.73
2023-05-01T18:57:35.144Z,11.56
2023-05-01T19:00:03.556Z,11.40
2023-05-01T19:02:31.736Z,11.24
2023-05-01T19:04:59.948Z,11.09
2023-05-01T19:07:27.943Z,10.95
2023-05-01T19:09:56.075Z,10.82
2023-05-01T19:12:24.022Z,10.69
2023-05-01T19:14:51.948Z,10.56
2023-05-01T19:17:20.121Z,10.44
2023-05-01T19:19:48.267Z,10.32
2023-05-01T19:22:16.794Z,10.18
2023-05-01T19:24:44.846Z,10.07
2023-05-01T19:27:12.908Z,9.98
2023-05-01T19:29:41.097Z,9.90
2023-05-01T19:32:09.209Z,9.82
2023-05-01T19:34:37.232Z,9.74
2023-05-01T19:37:05.256Z,9.67
2023-05-01T19:39:33.412Z,9.64
2023-05-01T19:42:02.235Z,9.62
2023-05-01T19:44:30.431Z,9.58
2023-05-01T19:46:58.419Z,9.57
2023-05-01T19:49:26.850Z,9.58
2023-05-01T19:51:55.200Z,9.58
2023-05-01T19:54:26.217Z,9.55
2023-05-01T19:56:55.175Z,9.52
2023-05-01T19:59:23.290Z,9.48
2023-05-01T20:01:52.051Z,9.44
2023-05-01T20:04:23.160Z,9.38
2023-05-01T20:06:52.109Z,9.32
2023-05-01T20:09:20.268Z,9.25
2023-05-01T20:11:48.260Z,9.18
2023-05-01T20:14:16.366Z,9.13
2023-05-01T20:16:44.418Z,9.07
2023-05-01T20:19:15.052Z,9.02
2023-05-01T20:21:43.029Z,8.95
2023-05-01T20:24:11.786Z,8.89
2023-05-01T20:26:39.748Z,8.88
2023-05-01T20:29:09.434Z,8.89
2023-05-01T20:31:37.665Z,8.87
2023-05-01T20:34:05.988Z,8.84
2023-05-01T20:36:34.200Z,8.85
2023-05-01T20:39:02.509Z,8.85
2023-05-01T20:41:30.998Z,8.83
2023-05-01T20:43:59.098Z,8.80
2023-05-01T20:46:27.173Z,8.77
2023-05-01T20:48:56.061Z,8.75
2023-05-01T20:51:24.143Z,8.72
2023-05-01T20:53:52.189Z,8.70
2023-05-01T20:56:20.311Z,8.67
2023-05-01T20:58:48.276Z,8.63
2023-05-01T21:01:16.253Z,8.60
2023-05-01T21:03:44.432Z,8.54
2023-05-01T21:06:14.410Z,8.48
2023-05-01T21:08:42.606Z,8.41
2023-05-01T21:11:10.679Z,8.36
2023-05-01T21:13:38.728Z,8.33
2023-05-01T21:16:06.968Z,8.30
2023-05-01T21:18:34.963Z,8.32
2023-05-01T21:21:02.954Z,8.36
2023-05-01T21:23:31.158Z,8.42
2023-05-01T21:25:59.283Z,8.47
2023-05-01T21:28:27.853Z,8.52
2023-05-01T21:30:55.950Z,8.53
2023-05-01T21:33:23.980Z,8.48
2023-05-01T21:35:52.004Z,8.43
2023-05-01T21:38:20.019Z,8.37
2023-05-01T21:40:48.220Z,8.30
2023-05-01T21:43:16.228Z,8.24
2023-05-01T21:45:44.425Z,8.17
2023-05-01T21:48:16.356Z,8.11
2023-05-01T21:50:47.981Z,8.06
2023-05-01T21:53:16.344Z,8.01
2023-05-01T21:55:47.303Z,7.95
2023-05-01T21:58:15.313Z,7.91
2023-05-01T22:00:43.334Z,7.87
2023-05-01T22:03:11.429Z,7.83
2023-05-01T22:05:41.109Z,7.80
2023-05-01T22:08:09.179Z,7.76
2023-05-01T22:10:37.365Z,7.74
2023-05-01T22:13:06.514Z,7.72
2023-05-01T22:15:34.684Z,7.71
2023-05-01T22:18:02.733Z,7.68
2023-05-01T22:20:31.148Z,7.64
2023-05-01T22:22:59.150Z,7.61
2023-05-01T22:25:27.126Z,7.58
2023-05-01T22:27:55.074Z,7.55
2023-05-01T22:30:23.197Z,7.54
2023-05-01T22:32:51.235Z,7.52
2023-05-01T22:35:19.228Z,7.49
2023-05-01T22:37:47.203Z,7.49
2023-05-01T22:40:15.140Z,7.49
2023-05-01T22:42:43.135Z,7.53
2023-05-01T22:45:11.544Z,7.54
2023-05-01T22:47:39.531Z,7.55
2023-05-01T22:50:08.169Z,7.54
2023-05-01T22:52:36.521Z,7.54
2023-05-01T22:55:04.905Z,7.56
2023-05-01T22:57:32.869Z,7.57
2023-05-01T23:00:01.026Z,7.59
2023-05-01T23:02:29.375Z,7.61
2023-05-01T23:04:57.438Z,7.60
2023-05-01T23:07:25.445Z,7.61
2023-05-01T23:09:53.451Z,7.62
2023-05-01T23:12:25.790Z,7.63
2023-05-01T23:14:53.879Z,7.63
2023-05-01T23:17:22.193Z,7.61
2023-05-01T23:19:50.408Z,7.58
2023-05-01T23:22:18.426Z,7.56
2023-05-01T23:24:48.505Z,7.57
2023-05-01T23:27:17.336Z,7.60
2023-05-01T23:30:11.798Z,7.62
2023-05-01T23:32:39.776Z,7.64
2023-05-01T23:35:19.169Z,7.62
2023-05-01T23:37:47.107Z,7.62
2023-05-01T23:40:15.124Z,7.61
2023-05-01T23:42:43.156Z,7.61
2023-05-01T23:45:11.224Z,7.62
2023-05-01T23:47:39.208Z,7.63
2023-05-01T23:50:07.663Z,7.65
2023-05-01T23:52:35.632Z,7.67
2023-05-01T23:55:03.701Z,7.71
2023-05-01T23:57:31.668Z,7.75
2023-05-01T23:59:59.893Z,7.78
